sensor_id;sensor_type;location;lat;lon;timestamp;pressure;altitude;pressure_sealevel;temperature;humidity
61676;BME280;47574;52.090;5.244;2022-09-09T00:00:12;100719.0;;;20.45;62.64
61676;BME280;47574;52.090;5.244;2022-09-09T00:01:53;100721.0;;;20.37;62.63
61676;BME280;47574;52.090;5.244;2022-09-09T00:03:40;100717.0;;;20.34;62.71
61676;BME280;47574;52.090;5.244;2022-09-09T00:05:26;100715.0;;;20.27;62.93
61676;BME280;47574;52.090;5.244;2022-09-09T00:09:00;100713.0;;;20.13;63.01
61676;BME280;47574;52.090;5.244;2022-09-09T00:10:39;100714.0;;;20.18;62.95
61676;BME280;47574;52.090;5.244;2022-09-09T00:12:22;100715.0;;;20.25;62.97
61676;BME280;47574;52.090;5.244;2022-09-09T00:14:17;100713.0;;;20.48;62.71
61676;BME280;47574;52.090;5.244;2022-09-09T00:16:00;100717.0;;;20.39;62.37
61676;BME280;47574;52.090;5.244;2022-09-09T00:21:16;100711.0;;;20.45;62.11
61676;BME280;47574;52.090;5.244;2022-09-09T00:22:59;100708.0;;;20.34;62.48
61676;BME280;47574;52.090;5.244;2022-09-09T00:24:42;100705.0;;;20.14;62.93
61676;BME280;47574;52.090;5.244;2022-09-09T00:26:25;100708.0;;;20.38;62.6
61676;BME280;47574;52.090;5.244;2022-09-09T00:29:56;100703.0;;;20.09;62.93
61676;BME280;47574;52.090;5.244;2022-09-09T00:33:18;100701.0;;;19.97;63.0
61676;BME280;47574;52.090;5.244;2022-09-09T00:34:57;100700.0;;;20.16;62.99
61676;BME280;47574;52.090;5.244;2022-09-09T00:38:18;100703.0;;;20.12;62.61
61676;BME280;47574;52.090;5.244;2022-09-09T00:39:59;100699.0;;;20.2;62.75
61676;BME280;47574;52.090;5.244;2022-09-09T00:41:49;100699.0;;;20.14;62.62
61676;BME280;47574;52.090;5.244;2022-09-09T00:43:39;100700.0;;;20.27;62.18
61676;BME280;47574;52.090;5.244;2022-09-09T00:45:34;100699.0;;;20.0;62.79
61676;BME280;47574;52.090;5.244;2022-09-09T00:47:33;100702.0;;;19.86;63.09
61676;BME280;47574;52.090;5.244;2022-09-09T00:49:37;100700.0;;;19.89;63.29
61676;BME280;47574;52.090;5.244;2022-09-09T00:51:28;100701.0;;;20.03;62.82
61676;BME280;47574;52.090;5.244;2022-09-09T00:55:09;100702.0;;;20.0;62.88
61676;BME280;47574;52.090;5.244;2022-09-09T00:57:03;100701.0;;;19.96;63.18
61676;BME280;47574;52.090;5.244;2022-09-09T00:58:43;100707.0;;;20.07;62.46
61676;BME280;47574;52.090;5.244;2022-09-09T01:00:29;100716.0;;;19.91;63.05
61676;BME280;47574;52.090;5.244;2022-09-09T01:02:16;100715.0;;;19.88;62.92
61676;BME280;47574;52.090;5.244;2022-09-09T01:03:55;100716.0;;;19.93;62.96
61676;BME280;47574;52.090;5.244;2022-09-09T01:07:17;100714.0;;;19.89;62.7
61676;BME280;47574;52.090;5.244;2022-09-09T01:09:18;100708.0;;;20.14;62.29
61676;BME280;47574;52.090;5.244;2022-09-09T01:10:58;100712.0;;;19.86;62.67
61676;BME280;47574;52.090;5.244;2022-09-09T01:12:39;100710.0;;;19.71;63.04
61676;BME280;47574;52.090;5.244;2022-09-09T01:16:10;100707.0;;;19.59;63.42
61676;BME280;47574;52.090;5.244;2022-09-09T01:17:52;100709.0;;;19.5;63.68
61676;BME280;47574;52.090;5.244;2022-09-09T01:19:40;100707.0;;;19.66;63.35
61676;BME280;47574;52.090;5.244;2022-09-09T01:21:33;100705.0;;;19.77;62.91
61676;BME280;47574;52.090;5.244;2022-09-09T01:23:29;100701.0;;;19.75;62.7
61676;BME280;47574;52.090;5.244;2022-09-09T01:25:19;100699.0;;;19.75;62.67
61676;BME280;47574;52.090;5.244;2022-09-09T01:27:52;100696.0;;;19.81;62.55
61676;BME280;47574;52.090;5.244;2022-09-09T01:29:32;100690.0;;;19.91;62.25
61676;BME280;47574;52.090;5.244;2022-09-09T01:31:11;100696.0;;;19.8;62.48
61676;BME280;47574;52.090;5.244;2022-09-09T01:34:35;100695.0;;;19.57;63.04
61676;BME280;47574;52.090;5.244;2022-09-09T01:36:21;100692.0;;;19.54;63.33
61676;BME280;47574;52.090;5.244;2022-09-09T01:38:01;100697.0;;;19.7;62.81
61676;BME280;47574;52.090;5.244;2022-09-09T01:39:38;100699.0;;;19.56;63.11
61676;BME280;47574;52.090;5.244;2022-09-09T01:42:55;100695.0;;;19.39;63.64
61676;BME280;47574;52.090;5.244;2022-09-09T01:44:32;100701.0;;;19.64;63.13
61676;BME280;47574;52.090;5.244;2022-09-09T01:46:11;100699.0;;;19.61;63.21
61676;BME280;47574;52.090;5.244;2022-09-09T01:47:49;100699.0;;;19.52;63.11
61676;BME280;47574;52.090;5.244;2022-09-09T01:51:03;100698.0;;;19.57;62.93
61676;BME280;47574;52.090;5.244;2022-09-09T01:52:39;100688.0;;;19.52;63.0
61676;BME280;47574;52.090;5.244;2022-09-09T01:54:16;100686.0;;;19.53;63.21
61676;BME280;47574;52.090;5.244;2022-09-09T01:57:44;100685.0;;;19.52;63.0
61676;BME280;47574;52.090;5.244;2022-09-09T01:59:44;100687.0;;;19.64;62.56
61676;BME280;47574;52.090;5.244;2022-09-09T02:01:32;100680.0;;;19.48;62.71
61676;BME280;47574;52.090;5.244;2022-09-09T02:03:20;100683.0;;;19.36;63.31
61676;BME280;47574;52.090;5.244;2022-09-09T02:05:11;100676.0;;;19.43;63.16
61676;BME280;47574;52.090;5.244;2022-09-09T02:06:55;100675.0;;;19.25;63.51
61676;BME280;47574;52.090;5.244;2022-09-09T02:10:21;100676.0;;;19.27;63.48
61676;BME280;47574;52.090;5.244;2022-09-09T02:12:08;100669.0;;;19.34;63.32
61676;BME280;47574;52.090;5.244;2022-09-09T02:13:50;100665.0;;;19.43;63.07
61676;BME280;47574;52.090;5.244;2022-09-09T02:15:32;100663.0;;;19.32;63.3
61676;BME280;47574;52.090;5.244;2022-09-09T02:17:17;100664.0;;;19.45;62.96
61676;BME280;47574;52.090;5.244;2022-09-09T02:20:42;100661.0;;;19.2;63.3
61676;BME280;47574;52.090;5.244;2022-09-09T02:22:22;100666.0;;;19.52;63.0
61676;BME280;47574;52.090;5.244;2022-09-09T02:24:02;100669.0;;;19.5;62.55
61676;BME280;47574;52.090;5.244;2022-09-09T02:25:41;100673.0;;;19.5;62.86
61676;BME280;47574;52.090;5.244;2022-09-09T02:29:00;100675.0;;;19.52;62.78
61676;BME280;47574;52.090;5.244;2022-09-09T02:30:40;100674.0;;;19.43;62.52
61676;BME280;47574;52.090;5.244;2022-09-09T02:32:20;100671.0;;;19.25;63.16
61676;BME280;47574;52.090;5.244;2022-09-09T02:37:20;100666.0;;;19.55;62.68
61676;BME280;47574;52.090;5.244;2022-09-09T02:38:58;100673.0;;;19.61;62.49
61676;BME280;47574;52.090;5.244;2022-09-09T02:40:35;100670.0;;;19.45;62.52
61676;BME280;47574;52.090;5.244;2022-09-09T02:43:47;100668.0;;;19.5;62.45
61676;BME280;47574;52.090;5.244;2022-09-09T02:45:27;100666.0;;;19.59;62.27
61676;BME280;47574;52.090;5.244;2022-09-09T02:47:16;100666.0;;;19.63;62.23
61676;BME280;47574;52.090;5.244;2022-09-09T02:49:02;100666.0;;;19.54;62.13
61676;BME280;47574;52.090;5.244;2022-09-09T02:50:52;100667.0;;;19.41;62.25
61676;BME280;47574;52.090;5.244;2022-09-09T02:54:24;100666.0;;;19.23;62.95
61676;BME280;47574;52.090;5.244;2022-09-09T02:56:04;100662.0;;;19.16;62.98
61676;BME280;47574;52.090;5.244;2022-09-09T02:57:48;100658.0;;;19.25;62.87
61676;BME280;47574;52.090;5.244;2022-09-09T02:59:26;100655.0;;;19.21;62.96
61676;BME280;47574;52.090;5.244;2022-09-09T03:01:03;100658.0;;;19.09;63.1
61676;BME280;47574;52.090;5.244;2022-09-09T03:04:15;100658.0;;;19.23;62.93
61676;BME280;47574;52.090;5.244;2022-09-09T03:05:51;100660.0;;;19.25;62.95
61676;BME280;47574;52.090;5.244;2022-09-09T03:07:28;100661.0;;;19.3;62.78
61676;BME280;47574;52.090;5.244;2022-09-09T03:10:40;100658.0;;;19.37;62.55
61676;BME280;47574;52.090;5.244;2022-09-09T03:12:16;100657.0;;;19.25;62.73
61676;BME280;47574;52.090;5.244;2022-09-09T03:13:53;100660.0;;;19.29;62.51
61676;BME280;47574;52.090;5.244;2022-09-09T03:17:09;100657.0;;;19.29;62.39
61676;BME280;47574;52.090;5.244;2022-09-09T03:18:45;100651.0;;;19.2;62.72
61676;BME280;47574;52.090;5.244;2022-09-09T03:20:22;100648.0;;;19.55;61.91
61676;BME280;47574;52.090;5.244;2022-09-09T03:22:00;100652.0;;;19.05;63.11
61676;BME280;47574;52.090;5.244;2022-09-09T03:25:12;100649.0;;;19.2;62.75
61676;BME280;47574;52.090;5.244;2022-09-09T03:26:50;100649.0;;;19.25;62.61
61676;BME280;47574;52.090;5.244;2022-09-09T03:28:31;100652.0;;;19.0;63.14
61676;BME280;47574;52.090;5.244;2022-09-09T03:31:44;100650.0;;;19.09;62.91
61676;BME280;47574;52.090;5.244;2022-09-09T03:33:20;100653.0;;;19.09;62.85
61676;BME280;47574;52.090;5.244;2022-09-09T03:34:56;100650.0;;;18.91;63.34
61676;BME280;47574;52.090;5.244;2022-09-09T03:38:10;100651.0;;;19.0;63.39
61676;BME280;47574;52.090;5.244;2022-09-09T03:39:46;100653.0;;;18.93;63.37
61676;BME280;47574;52.090;5.244;2022-09-09T03:41:24;100657.0;;;18.84;63.6
61676;BME280;47574;52.090;5.244;2022-09-09T03:43:01;100652.0;;;19.16;62.59
61676;BME280;47574;52.090;5.244;2022-09-09T03:46:13;100651.0;;;19.32;62.57
61676;BME280;47574;52.090;5.244;2022-09-09T03:47:50;100644.0;;;19.07;62.99
61676;BME280;47574;52.090;5.244;2022-09-09T03:49:28;100649.0;;;18.91;63.32
61676;BME280;47574;52.090;5.244;2022-09-09T03:52:42;100651.0;;;18.96;63.22
61676;BME280;47574;52.090;5.244;2022-09-09T03:54:18;100648.0;;;18.78;63.8
61676;BME280;47574;52.090;5.244;2022-09-09T03:55:56;100655.0;;;18.79;63.79
61676;BME280;47574;52.090;5.244;2022-09-09T03:57:35;100652.0;;;18.72;64.19
61676;BME280;47574;52.090;5.244;2022-09-09T04:00:53;100651.0;;;18.91;63.49
61676;BME280;47574;52.090;5.244;2022-09-09T04:02:30;100651.0;;;18.82;63.78
61676;BME280;47574;52.090;5.244;2022-09-09T04:04:08;100647.0;;;19.03;63.18
61676;BME280;47574;52.090;5.244;2022-09-09T04:07:25;100653.0;;;18.88;63.48
61676;BME280;47574;52.090;5.244;2022-09-09T04:09:03;100649.0;;;18.91;63.42
61676;BME280;47574;52.090;5.244;2022-09-09T04:10:39;100646.0;;;18.96;63.28
61676;BME280;47574;52.090;5.244;2022-09-09T04:12:16;100646.0;;;18.73;63.86
61676;BME280;47574;52.090;5.244;2022-09-09T04:15:29;100642.0;;;18.97;63.45
61676;BME280;47574;52.090;5.244;2022-09-09T04:17:06;100636.0;;;18.95;63.3
61676;BME280;47574;52.090;5.244;2022-09-09T04:18:42;100636.0;;;18.96;63.28
61676;BME280;47574;52.090;5.244;2022-09-09T04:21:55;100635.0;;;19.06;63.21
61676;BME280;47574;52.090;5.244;2022-09-09T04:23:31;100640.0;;;19.09;63.11
61676;BME280;47574;52.090;5.244;2022-09-09T04:25:08;100636.0;;;19.09;63.04
61676;BME280;47574;52.090;5.244;2022-09-09T04:28:24;100635.0;;;19.34;62.53
61676;BME280;47574;52.090;5.244;2022-09-09T04:30:01;100634.0;;;19.38;62.42
61676;BME280;47574;52.090;5.244;2022-09-09T04:31:41;100632.0;;;19.34;62.53
61676;BME280;47574;52.090;5.244;2022-09-09T04:33:18;100628.0;;;19.21;62.67
61676;BME280;47574;52.090;5.244;2022-09-09T04:36:32;100627.0;;;19.16;62.72
61676;BME280;47574;52.090;5.244;2022-09-09T04:38:09;100626.0;;;19.27;62.63
61676;BME280;47574;52.090;5.244;2022-09-09T04:39:45;100619.0;;;19.34;62.35
61676;BME280;47574;52.090;5.244;2022-09-09T04:42:58;100622.0;;;19.32;62.29
61676;BME280;47574;52.090;5.244;2022-09-09T04:44:35;100619.0;;;19.22;62.41
61676;BME280;47574;52.090;5.244;2022-09-09T04:46:11;100619.0;;;19.27;62.75
61676;BME280;47574;52.090;5.244;2022-09-09T04:47:47;100616.0;;;19.16;62.71
61676;BME280;47574;52.090;5.244;2022-09-09T04:51:01;100615.0;;;19.28;62.43
61676;BME280;47574;52.090;5.244;2022-09-09T04:52:37;100621.0;;;19.27;62.33
61676;BME280;47574;52.090;5.244;2022-09-09T04:54:14;100620.0;;;18.96;63.2
61676;BME280;47574;52.090;5.244;2022-09-09T04:57:26;100619.0;;;18.86;63.57
61676;BME280;47574;52.090;5.244;2022-09-09T04:59:03;100618.0;;;18.96;63.37
61676;BME280;47574;52.090;5.244;2022-09-09T05:00:38;100619.0;;;18.78;63.75
61676;BME280;47574;52.090;5.244;2022-09-09T05:03:52;100623.0;;;18.62;64.24
61676;BME280;47574;52.090;5.244;2022-09-09T05:05:28;100622.0;;;18.91;63.73
61676;BME280;47574;52.090;5.244;2022-09-09T05:07:04;100624.0;;;19.02;63.32
61676;BME280;47574;52.090;5.244;2022-09-09T05:08:41;100619.0;;;18.91;63.68
61676;BME280;47574;52.090;5.244;2022-09-09T05:11:57;100617.0;;;18.86;63.83
61676;BME280;47574;52.090;5.244;2022-09-09T05:13:34;100618.0;;;18.81;64.13
61676;BME280;47574;52.090;5.244;2022-09-09T05:15:10;100615.0;;;19.07;63.41
61676;BME280;47574;52.090;5.244;2022-09-09T05:18:23;100611.0;;;19.04;63.45
61676;BME280;47574;52.090;5.244;2022-09-09T05:20:00;100611.0;;;19.16;63.01
61676;BME280;47574;52.090;5.244;2022-09-09T05:21:36;100609.0;;;19.13;63.13
61676;BME280;47574;52.090;5.244;2022-09-09T05:24:50;100609.0;;;19.05;63.51
61676;BME280;47574;52.090;5.244;2022-09-09T05:26:26;100608.0;;;18.93;63.62
61676;BME280;47574;52.090;5.244;2022-09-09T05:28:02;100609.0;;;18.98;63.6
61676;BME280;47574;52.090;5.244;2022-09-09T05:29:38;100611.0;;;19.06;63.52
61676;BME280;47574;52.090;5.244;2022-09-09T05:32:55;100615.0;;;18.93;63.84
61676;BME280;47574;52.090;5.244;2022-09-09T05:34:32;100616.0;;;19.05;63.56
61676;BME280;47574;52.090;5.244;2022-09-09T05:36:10;100610.0;;;19.06;63.53
61676;BME280;47574;52.090;5.244;2022-09-09T05:39:23;100601.0;;;19.02;63.74
61676;BME280;47574;52.090;5.244;2022-09-09T05:41:00;100593.0;;;19.34;62.95
61676;BME280;47574;52.090;5.244;2022-09-09T05:42:37;100598.0;;;19.03;63.62
61676;BME280;47574;52.090;5.244;2022-09-09T05:44:13;100596.0;;;19.16;63.56
61676;BME280;47574;52.090;5.244;2022-09-09T05:47:35;100591.0;;;19.3;63.1
61676;BME280;47574;52.090;5.244;2022-09-09T05:49:12;100605.0;;;19.06;63.72
61676;BME280;47574;52.090;5.244;2022-09-09T05:50:52;100605.0;;;19.11;63.82
61676;BME280;47574;52.090;5.244;2022-09-09T05:54:05;100609.0;;;19.45;62.95
61676;BME280;47574;52.090;5.244;2022-09-09T05:55:42;100617.0;;;19.16;63.7
61676;BME280;47574;52.090;5.244;2022-09-09T05:57:19;100619.0;;;19.25;63.54
61676;BME280;47574;52.090;5.244;2022-09-09T05:58:56;100621.0;;;19.18;63.81
61676;BME280;47574;52.090;5.244;2022-09-09T06:02:09;100623.0;;;18.96;64.55
61676;BME280;47574;52.090;5.244;2022-09-09T06:03:46;100620.0;;;19.16;64.19
61676;BME280;47574;52.090;5.244;2022-09-09T06:05:23;100622.0;;;19.36;63.71
61676;BME280;47574;52.090;5.244;2022-09-09T06:08:39;100624.0;;;19.36;63.71
61676;BME280;47574;52.090;5.244;2022-09-09T06:10:16;100617.0;;;19.39;63.64
61676;BME280;47574;52.090;5.244;2022-09-09T06:11:54;100619.0;;;19.46;63.6
61676;BME280;47574;52.090;5.244;2022-09-09T06:15:09;100620.0;;;19.18;64.48
61676;BME280;47574;52.090;5.244;2022-09-09T06:16:46;100617.0;;;19.41;63.87
61676;BME280;47574;52.090;5.244;2022-09-09T06:18:22;100614.0;;;19.39;63.93
61676;BME280;47574;52.090;5.244;2022-09-09T06:19:59;100610.0;;;19.57;63.56
61676;BME280;47574;52.090;5.244;2022-09-09T06:23:13;100615.0;;;19.64;63.5
61676;BME280;47574;52.090;5.244;2022-09-09T06:24:49;100610.0;;;19.41;63.95
61676;BME280;47574;52.090;5.244;2022-09-09T06:26:27;100613.0;;;19.13;65.13
61676;BME280;47574;52.090;5.244;2022-09-09T06:29:39;100614.0;;;19.37;64.74
61676;BME280;47574;52.090;5.244;2022-09-09T06:31:18;100613.0;;;19.75;63.75
61676;BME280;47574;52.090;5.244;2022-09-09T06:32:56;100611.0;;;19.66;64.05
61676;BME280;47574;52.090;5.244;2022-09-09T06:34:32;100612.0;;;19.64;64.08
61676;BME280;47574;52.090;5.244;2022-09-09T06:37:48;100608.0;;;19.71;64.41
61676;BME280;47574;52.090;5.244;2022-09-09T06:39:24;100605.0;;;19.86;63.71
61676;BME280;47574;52.090;5.244;2022-09-09T06:41:02;100603.0;;;19.86;63.71
61676;BME280;47574;52.090;5.244;2022-09-09T06:44:15;100605.0;;;20.04;63.52
61676;BME280;47574;52.090;5.244;2022-09-09T06:45:53;100605.0;;;20.07;63.43
61676;BME280;47574;52.090;5.244;2022-09-09T06:47:30;100602.0;;;19.78;64.16
61676;BME280;47574;52.090;5.244;2022-09-09T06:49:07;100596.0;;;19.89;63.97
61676;BME280;47574;52.090;5.244;2022-09-09T06:52:19;100601.0;;;19.96;64.2
61676;BME280;47574;52.090;5.244;2022-09-09T06:53:57;100602.0;;;19.78;64.64
61676;BME280;47574;52.090;5.244;2022-09-09T06:55:35;100602.0;;;20.14;63.66
61676;BME280;47574;52.090;5.244;2022-09-09T06:58:50;100603.0;;;19.95;64.19
61676;BME280;47574;52.090;5.244;2022-09-09T07:00:26;100605.0;;;19.86;64.41
61676;BME280;47574;52.090;5.244;2022-09-09T07:02:03;100605.0;;;20.2;63.79
61676;BME280;47574;52.090;5.244;2022-09-09T07:05:16;100605.0;;;19.97;64.3
61676;BME280;47574;52.090;5.244;2022-09-09T07:06:52;100602.0;;;20.34;63.59
61676;BME280;47574;52.090;5.244;2022-09-09T07:08:28;100601.0;;;19.93;64.44
61676;BME280;47574;52.090;5.244;2022-09-09T07:10:05;100602.0;;;20.2;64.16
61676;BME280;47574;52.090;5.244;2022-09-09T07:13:23;100597.0;;;20.18;63.74
61676;BME280;47574;52.090;5.244;2022-09-09T07:15:01;100595.0;;;20.13;63.75
61676;BME280;47574;52.090;5.244;2022-09-09T07:16:37;100595.0;;;20.12;63.56
61676;BME280;47574;52.090;5.244;2022-09-09T07:19:49;100593.0;;;20.32;63.14
61676;BME280;47574;52.090;5.244;2022-09-09T07:21:27;100591.0;;;20.18;63.12
61676;BME280;47574;52.090;5.244;2022-09-09T07:23:04;100593.0;;;20.37;62.91
61676;BME280;47574;52.090;5.244;2022-09-09T07:24:40;100599.0;;;20.49;62.92
61676;BME280;47574;52.090;5.244;2022-09-09T07:27:57;100600.0;;;20.6;62.52
61676;BME280;47574;52.090;5.244;2022-09-09T07:29:33;100600.0;;;20.55;62.56
61676;BME280;47574;52.090;5.244;2022-09-09T07:34:28;100600.0;;;20.85;61.56
61676;BME280;47574;52.090;5.244;2022-09-09T07:36:06;100597.0;;;20.93;61.55
61676;BME280;47574;52.090;5.244;2022-09-09T07:37:43;100600.0;;;20.71;62.16
61676;BME280;47574;52.090;5.244;2022-09-09T07:39:20;100602.0;;;20.57;61.51
61676;BME280;47574;52.090;5.244;2022-09-09T07:42:39;100607.0;;;20.56;62.81
61676;BME280;47574;52.090;5.244;2022-09-09T07:44:18;100615.0;;;20.36;62.7
61676;BME280;47574;52.090;5.244;2022-09-09T07:45:57;100614.0;;;20.78;61.87
61676;BME280;47574;52.090;5.244;2022-09-09T07:49:11;100613.0;;;20.36;62.33
61676;BME280;47574;52.090;5.244;2022-09-09T07:50:47;100617.0;;;20.66;62.11
61676;BME280;47574;52.090;5.244;2022-09-09T07:52:23;100619.0;;;20.74;61.17
61676;BME280;47574;52.090;5.244;2022-09-09T07:54:01;100614.0;;;20.68;61.77
61676;BME280;47574;52.090;5.244;2022-09-09T07:57:15;100618.0;;;20.6;61.61
61676;BME280;47574;52.090;5.244;2022-09-09T07:58:54;100616.0;;;20.96;61.08
61676;BME280;47574;52.090;5.244;2022-09-09T08:00:30;100616.0;;;21.2;60.26
61676;BME280;47574;52.090;5.244;2022-09-09T08:03:45;100617.0;;;20.75;61.56
61676;BME280;47574;52.090;5.244;2022-09-09T08:05:28;100612.0;;;21.18;60.27
61676;BME280;47574;52.090;5.244;2022-09-09T08:07:04;100613.0;;;21.24;59.88
61676;BME280;47574;52.090;5.244;2022-09-09T08:08:41;100612.0;;;21.1;60.13
61676;BME280;47574;52.090;5.244;2022-09-09T08:11:57;100618.0;;;20.87;60.46
61676;BME280;47574;52.090;5.244;2022-09-09T08:13:34;100613.0;;;21.06;59.77
61676;BME280;47574;52.090;5.244;2022-09-09T08:15:11;100613.0;;;20.85;60.18
61676;BME280;47574;52.090;5.244;2022-09-09T08:18:26;100616.0;;;20.65;60.55
61676;BME280;47574;52.090;5.244;2022-09-09T08:20:06;100613.0;;;20.94;60.02
61676;BME280;47574;52.090;5.244;2022-09-09T08:21:43;100618.0;;;21.01;60.25
61676;BME280;47574;52.090;5.244;2022-09-09T08:23:21;100619.0;;;20.81;60.07
61676;BME280;47574;52.090;5.244;2022-09-09T08:26:36;100618.0;;;20.99;59.7
61676;BME280;47574;52.090;5.244;2022-09-09T08:28:12;100621.0;;;21.04;60.22
61676;BME280;47574;52.090;5.244;2022-09-09T08:29:48;100624.0;;;20.92;60.02
61676;BME280;47574;52.090;5.244;2022-09-09T08:33:05;100625.0;;;21.05;59.8
61676;BME280;47574;52.090;5.244;2022-09-09T08:34:41;100623.0;;;21.04;60.0
61676;BME280;47574;52.090;5.244;2022-09-09T08:36:21;100622.0;;;21.02;60.06
61676;BME280;47574;52.090;5.244;2022-09-09T08:43:43;100624.0;;;21.5;58.78
61676;BME280;47574;52.090;5.244;2022-09-09T08:45:28;100627.0;;;21.7;58.45
61676;BME280;47574;52.090;5.244;2022-09-09T08:47:14;100630.0;;;21.62;58.1
61676;BME280;47574;52.090;5.244;2022-09-09T08:49:01;100635.0;;;21.29;58.89
61676;BME280;47574;52.090;5.244;2022-09-09T08:50:44;100636.0;;;21.36;58.82
61676;BME280;47574;52.090;5.244;2022-09-09T08:54:03;100636.0;;;21.29;59.55
61676;BME280;47574;52.090;5.244;2022-09-09T08:55:45;100632.0;;;21.63;57.96
61676;BME280;47574;52.090;5.244;2022-09-09T08:57:26;100635.0;;;21.33;58.69
61676;BME280;47574;52.090;5.244;2022-09-09T08:59:04;100637.0;;;21.29;58.77
61676;BME280;47574;52.090;5.244;2022-09-09T09:02:54;100635.0;;;21.02;59.28
61676;BME280;47574;52.090;5.244;2022-09-09T09:04:45;100640.0;;;21.01;59.49
61676;BME280;47574;52.090;5.244;2022-09-09T09:06:38;100639.0;;;21.59;58.08
61676;BME280;47574;52.090;5.244;2022-09-09T09:08:26;100642.0;;;21.43;58.64
61676;BME280;47574;52.090;5.244;2022-09-09T09:10:13;100643.0;;;21.34;58.29
61676;BME280;47574;52.090;5.244;2022-09-09T09:12:02;100640.0;;;21.16;58.66
61676;BME280;47574;52.090;5.244;2022-09-09T09:13:46;100640.0;;;21.25;58.69
61676;BME280;47574;52.090;5.244;2022-09-09T09:17:14;100641.0;;;21.4;58.46
61676;BME280;47574;52.090;5.244;2022-09-09T09:18:55;100643.0;;;21.41;58.28
61676;BME280;47574;52.090;5.244;2022-09-09T09:20:38;100646.0;;;21.35;58.25
61676;BME280;47574;52.090;5.244;2022-09-09T09:22:21;100639.0;;;21.54;57.52
61676;BME280;47574;52.090;5.244;2022-09-09T09:24:00;100640.0;;;21.57;57.67
61676;BME280;47574;52.090;5.244;2022-09-09T09:27:23;100648.0;;;21.29;58.34
61676;BME280;47574;52.090;5.244;2022-09-09T09:29:12;100650.0;;;21.38;58.48
61676;BME280;47574;52.090;5.244;2022-09-09T09:30:51;100649.0;;;21.45;58.24
61676;BME280;47574;52.090;5.244;2022-09-09T09:32:33;100646.0;;;21.26;58.67
61676;BME280;47574;52.090;5.244;2022-09-09T09:35:48;100648.0;;;21.38;58.95
61676;BME280;47574;52.090;5.244;2022-09-09T09:37:27;100649.0;;;21.33;59.02
61676;BME280;47574;52.090;5.244;2022-09-09T09:39:06;100647.0;;;21.52;58.71
61676;BME280;47574;52.090;5.244;2022-09-09T09:40:52;100656.0;;;21.4;59.19
61676;BME280;47574;52.090;5.244;2022-09-09T09:46:00;100663.0;;;21.08;61.81
61676;BME280;47574;52.090;5.244;2022-09-09T09:47:41;100663.0;;;20.93;63.04
61676;BME280;47574;52.090;5.244;2022-09-09T09:49:17;100662.0;;;20.92;62.81
61676;BME280;47574;52.090;5.244;2022-09-09T09:52:35;100661.0;;;20.91;62.98
61676;BME280;47574;52.090;5.244;2022-09-09T09:54:18;100653.0;;;21.0;62.54
61676;BME280;47574;52.090;5.244;2022-09-09T09:56:01;100650.0;;;21.13;62.23
61676;BME280;47574;52.090;5.244;2022-09-09T09:57:39;100650.0;;;21.31;62.26
61676;BME280;47574;52.090;5.244;2022-09-09T10:01:20;100644.0;;;21.18;62.17
61676;BME280;47574;52.090;5.244;2022-09-09T10:02:59;100645.0;;;21.25;61.93
61676;BME280;47574;52.090;5.244;2022-09-09T10:04:36;100649.0;;;21.06;61.98
61676;BME280;47574;52.090;5.244;2022-09-09T10:06:12;100643.0;;;21.17;61.92
61676;BME280;47574;52.090;5.244;2022-09-09T10:09:37;100646.0;;;21.13;61.57
61676;BME280;47574;52.090;5.244;2022-09-09T10:11:26;100649.0;;;21.38;61.7
61676;BME280;47574;52.090;5.244;2022-09-09T10:13:11;100638.0;;;21.41;61.35
61676;BME280;47574;52.090;5.244;2022-09-09T10:14:57;100643.0;;;20.84;61.82
61676;BME280;47574;52.090;5.244;2022-09-09T10:16:49;100645.0;;;21.04;61.27
61676;BME280;47574;52.090;5.244;2022-09-09T10:18:39;100650.0;;;21.29;61.24
61676;BME280;47574;52.090;5.244;2022-09-09T10:20:32;100660.0;;;20.99;62.62
61676;BME280;47574;52.090;5.244;2022-09-09T10:24:21;100655.0;;;20.49;63.76
61676;BME280;47574;52.090;5.244;2022-09-09T10:26:10;100660.0;;;20.62;64.11
61676;BME280;47574;52.090;5.244;2022-09-09T10:28:26;100660.0;;;20.55;64.33
61676;BME280;47574;52.090;5.244;2022-09-09T10:31:04;100659.0;;;20.82;63.97
61676;BME280;47574;52.090;5.244;2022-09-09T10:34:54;100659.0;;;20.7;64.22
61676;BME280;47574;52.090;5.244;2022-09-09T10:36:32;100661.0;;;20.96;64.2
61676;BME280;47574;52.090;5.244;2022-09-09T10:38:16;100656.0;;;21.27;64.42
61676;BME280;47574;52.090;5.244;2022-09-09T10:40:02;100650.0;;;21.19;63.74
61676;BME280;47574;52.090;5.244;2022-09-09T10:41:56;100656.0;;;20.94;64.23
61676;BME280;47574;52.090;5.244;2022-09-09T10:43:49;100653.0;;;21.2;63.82
61676;BME280;47574;52.090;5.244;2022-09-09T10:45:41;100647.0;;;21.25;63.87
61676;BME280;47574;52.090;5.244;2022-09-09T10:49:37;100652.0;;;21.0;63.99
61676;BME280;47574;52.090;5.244;2022-09-09T10:51:23;100650.0;;;20.86;64.58
61676;BME280;47574;52.090;5.244;2022-09-09T10:53:10;100646.0;;;21.05;64.44
61676;BME280;47574;52.090;5.244;2022-09-09T10:54:56;100648.0;;;21.49;63.91
61676;BME280;47574;52.090;5.244;2022-09-09T10:56:37;100638.0;;;21.74;63.25
61676;BME280;47574;52.090;5.244;2022-09-09T10:58:17;100644.0;;;21.5;63.35
61676;BME280;47574;52.090;5.244;2022-09-09T11:01:45;100643.0;;;21.43;63.42
61676;BME280;47574;52.090;5.244;2022-09-09T11:03:25;100637.0;;;21.9;62.79
61676;BME280;47574;52.090;5.244;2022-09-09T11:05:06;100643.0;;;21.69;62.4
61676;BME280;47574;52.090;5.244;2022-09-09T11:06:54;100636.0;;;21.19;63.45
61676;BME280;47574;52.090;5.244;2022-09-09T11:08:33;100638.0;;;21.46;62.67
61676;BME280;47574;52.090;5.244;2022-09-09T11:12:01;100632.0;;;21.53;62.29
61676;BME280;47574;52.090;5.244;2022-09-09T11:13:43;100626.0;;;21.56;62.3
61676;BME280;47574;52.090;5.244;2022-09-09T11:15:28;100631.0;;;21.32;62.67
61676;BME280;47574;52.090;5.244;2022-09-09T11:17:18;100631.0;;;21.43;62.29
61676;BME280;47574;52.090;5.244;2022-09-09T11:19:03;100628.0;;;21.26;62.39
61676;BME280;47574;52.090;5.244;2022-09-09T11:22:29;100628.0;;;21.33;62.4